createdAt,value
2023-05-14T00:00:50.962Z,100471.42
2023-05-14T00:01:50.765Z,100469.67
2023-05-14T00:02:50.818Z,100466.72
2023-05-14T00:03:50.863Z,100467.12
2023-05-14T00:04:51.054Z,100469.66
2023-05-14T00:05:50.803Z,100466.14
2023-05-14T00:06:50.822Z,100467.7
2023-05-14T00:07:50.843Z,100461.57
2023-05-14T00:08:50.844Z,100461.6
2023-05-14T00:09:50.860Z,100464.59
2023-05-14T00:10:50.903Z,100465.05
2023-05-14T00:11:50.893Z,100465.42
2023-05-14T00:12:51.421Z,100466.22
2023-05-14T00:13:51.112Z,100465.72
2023-05-14T00:14:50.983Z,100467.73
2023-05-14T00:15:51.076Z,100470.12
2023-05-14T00:16:50.989Z,100473.42
2023-05-14T00:17:51.042Z,100471.23
2023-05-14T00:18:51.064Z,100472.48
2023-05-14T00:19:51.026Z,100470.36
2023-05-14T00:20:51.037Z,100468.39
2023-05-14T00:21:51.027Z,100469.34
2023-05-14T00:22:51.047Z,100471.28
2023-05-14T00:23:51.062Z,100473.62
2023-05-14T00:24:51.062Z,100471.89
2023-05-14T00:25:51.238Z,100469.83
2023-05-14T00:26:51.105Z,100476.52
2023-05-14T00:27:51.097Z,100472.47
2023-05-14T00:28:51.126Z,100474.11
2023-05-14T00:29:51.127Z,100470.36
2023-05-14T00:30:51.392Z,100474.05
2023-05-14T00:31:51.438Z,100473.22
2023-05-14T00:32:51.182Z,100472.45
2023-05-14T00:33:51.182Z,100471.92
2023-05-14T00:34:51.461Z,100469.73
2023-05-14T00:35:51.238Z,100467.7
2023-05-14T00:36:51.449Z,100466.77
2023-05-14T00:37:51.269Z,100469.17
2023-05-14T00:38:51.268Z,100466.8
2023-05-14T00:39:51.285Z,100466.03
2023-05-14T00:40:51.360Z,100470.33
2023-05-14T00:41:51.294Z,100474.39
2023-05-14T00:42:51.301Z,100469.89
2023-05-14T00:43:51.342Z,100473.25
2023-05-14T00:44:51.333Z,100469.01
2023-05-14T00:45:52.568Z,100472.19
2023-05-14T00:46:52.162Z,100469.02
2023-05-14T00:47:52.203Z,100466.88
2023-05-14T00:48:51.539Z,100469.25
2023-05-14T00:49:51.451Z,100466.09
2023-05-14T00:50:51.416Z,100470.06
2023-05-14T00:51:52.187Z,100469.33
2023-05-14T00:52:51.471Z,100468.19
2023-05-14T00:53:51.958Z,100466.94
2023-05-14T00:54:51.761Z,100466.88
2023-05-14T00:55:52.057Z,100458.69
2023-05-14T00:56:51.497Z,100462.86
2023-05-14T00:57:53.230Z,100462.8
2023-05-14T00:58:51.495Z,100461.69
2023-05-14T00:59:52.442Z,100459.78
2023-05-14T01:00:51.571Z,100463.57
2023-05-14T01:01:51.585Z,100460.84
2023-05-14T01:02:51.684Z,100464.52
2023-05-14T01:03:51.705Z,100464.88
2023-05-14T01:04:52.150Z,100464.17
2023-05-14T01:08:02.999Z,100467.09
2023-05-14T01:10:17.090Z,100466.72
2023-05-14T01:11:17.284Z,100465.77
2023-05-14T01:13:18.615Z,100459.48
2023-05-14T01:14:23.875Z,100458.91
2023-05-14T01:15:20.845Z,100464.64
2023-05-14T01:16:18.616Z,100467.2
2023-05-14T01:17:17.952Z,100467.45
2023-05-14T01:18:18.608Z,100470.64
2023-05-14T01:20:21.588Z,100478.17
2023-05-14T01:22:25.423Z,100471.2
2023-05-14T01:23:25.422Z,100473.59
2023-05-14T01:24:25.449Z,100468.28
2023-05-14T01:25:25.677Z,100470.83
2023-05-14T01:26:25.460Z,100469.55
2023-05-14T01:29:28.883Z,100461.05
2023-05-14T01:31:33.281Z,100465
2023-05-14T01:32:32.982Z,100464.16
2023-05-14T01:33:33.718Z,100464.08
2023-05-14T01:34:32.862Z,100461.91
2023-05-14T01:35:32.724Z,100461.06
2023-05-14T01:36:32.127Z,100455.78
2023-05-14T01:37:32.586Z,100454.7
2023-05-14T01:38:33.184Z,100452.02
2023-05-14T01:39:32.725Z,100454.2
2023-05-14T01:40:32.742Z,100456.81
2023-05-14T01:41:32.696Z,100450.95
2023-05-14T01:42:32.237Z,100454.56
2023-05-14T01:43:32.352Z,100456.77
2023-05-14T01:44:32.695Z,100454.23
2023-05-14T01:45:35.029Z,100455.11
2023-05-14T01:46:32.596Z,100455.58
2023-05-14T01:47:32.074Z,100451.12
2023-05-14T01:48:32.103Z,100451.69
2023-05-14T01:49:32.087Z,100455.72
2023-05-14T01:50:32.278Z,100456.58
2023-05-14T01:51:32.454Z,100457.49
2023-05-14T01:52:32.124Z,100461.04
2023-05-14T01:53:32.115Z,100456.75
2023-05-14T01:54:32.161Z,100456.28
2023-05-14T01:55:32.165Z,100460.77
2023-05-14T01:56:32.198Z,100460.87
2023-05-14T01:57:32.462Z,100457.02
2023-05-14T01:58:32.226Z,100457.67
2023-05-14T01:59:32.259Z,100459.65
2023-05-14T02:00:32.671Z,100458.3
2023-05-14T02:01:32.559Z,100463.14
2023-05-14T02:02:32.395Z,100459.83
2023-05-14T02:03:32.332Z,100466.39
2023-05-14T02:04:32.353Z,100468.45
2023-05-14T02:05:32.335Z,100473.1
2023-05-14T02:06:32.358Z,100469.99
2023-05-14T02:07:32.884Z,100469.06
2023-05-14T02:08:32.874Z,100467.58
2023-05-14T02:09:32.870Z,100469.29
2023-05-14T02:10:32.906Z,100466.55
2023-05-14T02:11:32.938Z,100465.14
2023-05-14T02:12:33.178Z,100460.43
2023-05-14T02:13:32.955Z,100459.1
2023-05-14T02:14:33.006Z,100459.05
2023-05-14T02:15:32.972Z,100460.38
2023-05-14T02:16:33.109Z,100461.83
2023-05-14T02:17:33.120Z,100465.33
2023-05-14T02:18:33.064Z,100465.48
2023-05-14T02:19:33.070Z,100470.34
2023-05-14T02:20:33.067Z,100465.36
2023-05-14T02:21:33.106Z,100468.53
2023-05-14T02:22:33.114Z,100467.84
2023-05-14T02:23:40.907Z,100466.96
2023-05-14T02:24:33.473Z,100466.3
2023-05-14T02:25:33.440Z,100467.06
2023-05-14T02:26:33.488Z,100462.42
2023-05-14T02:27:33.533Z,100458.88
2023-05-14T02:28:33.510Z,100461.09
2023-05-14T02:29:33.509Z,100457.47
2023-05-14T02:30:33.554Z,100459.09
2023-05-14T02:31:33.608Z,100457.73
2023-05-14T02:33:33.626Z,100455.6
2023-05-14T02:34:34.011Z,100464.75
2023-05-14T02:35:33.613Z,100464.31
2023-05-14T02:36:33.632Z,100460.97
2023-05-14T02:37:33.694Z,100460.41
2023-05-14T02:38:33.698Z,100459.81
2023-05-14T02:39:33.674Z,100461.64
2023-05-14T02:40:33.698Z,100455.08
2023-05-14T02:41:33.701Z,100457.95
2023-05-14T02:42:34.316Z,100459.42
2023-05-14T02:43:33.732Z,100458.67
2023-05-14T02:44:33.780Z,100456.38
2023-05-14T02:45:33.773Z,100456.8
2023-05-14T02:46:33.829Z,100455.63
2023-05-14T02:47:35.452Z,100453.78
2023-05-14T02:48:33.993Z,100458.56
2023-05-14T02:49:34.021Z,100460.71
2023-05-14T02:50:34.028Z,100459.42
2023-05-14T02:51:34.039Z,100458.91
2023-05-14T02:52:34.102Z,100462.38
2023-05-14T02:53:34.056Z,100460.27
2023-05-14T02:54:34.257Z,100464.33
2023-05-14T02:55:34.135Z,100462.83
2023-05-14T02:56:34.134Z,100466.93
2023-05-14T02:57:34.164Z,100464.5
2023-05-14T02:58:34.153Z,100467.41
2023-05-14T02:59:34.175Z,100464.69
2023-05-14T03:00:34.618Z,100467.69
2023-05-14T03:01:34.195Z,100469.73
2023-05-14T03:02:34.569Z,100470.19
2023-05-14T03:03:34.435Z,100468.88
2023-05-14T03:04:34.227Z,100471.5
2023-05-14T03:05:34.521Z,100473.38
2023-05-14T03:06:34.268Z,100474.62
2023-05-14T03:07:34.311Z,100472.19
2023-05-14T03:08:34.341Z,100473.56
2023-05-14T03:09:36.013Z,100475.8
2023-05-14T03:10:34.386Z,100477.16
2023-05-14T03:11:34.568Z,100468.39
2023-05-14T03:12:34.390Z,100473.94
2023-05-14T03:13:34.414Z,100469.44
2023-05-14T03:14:34.463Z,100469.42
2023-05-14T03:15:34.469Z,100467.64
2023-05-14T03:16:34.478Z,100469.16
2023-05-14T03:17:34.495Z,100469.98
2023-05-14T03:18:34.537Z,100467.89
2023-05-14T03:19:34.506Z,100468.86
2023-05-14T03:20:34.517Z,100468.52
2023-05-14T03:21:34.536Z,100470.22
2023-05-14T03:22:34.583Z,100468.48
2023-05-14T03:23:34.794Z,100467.08
2023-05-14T03:24:34.754Z,100459.52
2023-05-14T03:25:34.610Z,100460.08
2023-05-14T03:26:34.617Z,100461.95
2023-05-14T03:27:34.634Z,100460.72
2023-05-14T03:28:34.687Z,100462.92
2023-05-14T03:29:34.655Z,100466.36
2023-05-14T03:30:34.755Z,100465.56
2023-05-14T03:31:34.712Z,100459.64
2023-05-14T03:32:34.982Z,100468.03
2023-05-14T03:33:35.198Z,100463.59
2023-05-14T03:34:34.924Z,100461.37
2023-05-14T03:35:34.768Z,100467.19
2023-05-14T03:36:34.817Z,100464.23
2023-05-14T03:37:34.830Z,100461.73
2023-05-14T03:38:34.791Z,100464.62
2023-05-14T03:39:34.841Z,100461.97
2023-05-14T03:40:34.884Z,100461.73
2023-05-14T03:41:35.093Z,100467.95
2023-05-14T03:42:34.876Z,100464.59
2023-05-14T03:43:34.954Z,100462.77
2023-05-14T03:44:34.929Z,100467.8
2023-05-14T03:45:34.953Z,100462.86
2023-05-14T03:46:34.944Z,100463
2023-05-14T03:47:34.957Z,100461.2
2023-05-14T03:48:35.048Z,100458.05
2023-05-14T03:49:35.012Z,100460.52
2023-05-14T03:50:35.023Z,100459.78
2023-05-14T03:51:35.267Z,100458.48
2023-05-14T03:52:35.272Z,100461.87
2023-05-14T03:53:35.059Z,100456.09
2023-05-14T03:54:35.115Z,100460.38
2023-05-14T03:55:35.094Z,100457.19
2023-05-14T03:56:35.171Z,100462.34
2023-05-14T03:57:35.144Z,100464.06
2023-05-14T03:58:35.140Z,100463.46
2023-05-14T03:59:35.167Z,100467.19
2023-05-14T04:00:35.459Z,100466.12
2023-05-14T04:01:35.198Z,100464.5
2023-05-14T04:02:35.293Z,100465.59
2023-05-14T04:03:35.356Z,100462.2
2023-05-14T04:04:35.396Z,100466.45
2023-05-14T04:05:35.841Z,100465.61
2023-05-14T04:06:35.267Z,100461.44
2023-05-14T04:07:35.287Z,100464.05
2023-05-14T04:08:35.322Z,100461.83
2023-05-14T04:09:35.348Z,100460.13
2023-05-14T04:10:35.360Z,100461.19
2023-05-14T04:11:35.423Z,100463.41
2023-05-14T04:12:35.378Z,100462.23
2023-05-14T04:13:35.433Z,100461.3
2023-05-14T04:14:35.432Z,100457.69
2023-05-14T04:15:35.454Z,100459.8
2023-05-14T04:16:35.524Z,100459.9
2023-05-14T04:17:35.494Z,100462.35
2023-05-14T04:18:35.598Z,100458.51
2023-05-14T04:19:35.500Z,100459.3
2023-05-14T04:20:35.512Z,100460.06
2023-05-14T04:21:35.539Z,100461.5
2023-05-14T04:22:35.549Z,100460.67
2023-05-14T04:23:35.556Z,100461.62
2023-05-14T04:24:35.593Z,100463.25
2023-05-14T04:25:35.617Z,100462.85
2023-05-14T04:26:35.598Z,100461.3
2023-05-14T04:27:35.579Z,100461.4
2023-05-14T04:28:35.802Z,100464.18
2023-05-14T04:29:35.705Z,100462.78
2023-05-14T04:30:35.717Z,100460.78
2023-05-14T04:31:36.063Z,100465.8
2023-05-14T04:32:35.759Z,100466.63
2023-05-14T04:33:35.718Z,100464.91
2023-05-14T04:34:35.743Z,100458.58
2023-05-14T04:35:35.861Z,100465.66
2023-05-14T04:36:35.797Z,100465.84
2023-05-14T04:37:36.103Z,100465.14
2023-05-14T04:38:35.815Z,100459.62
2023-05-14T04:39:36.369Z,100457.96
2023-05-14T04:40:35.862Z,100452.27
2023-05-14T04:41:35.891Z,100455.44
2023-05-14T04:42:35.904Z,100451.61
2023-05-14T04:43:35.893Z,100454.84
2023-05-14T04:44:36.357Z,100455.77
2023-05-14T04:45:36.254Z,100453.93
2023-05-14T04:46:36.005Z,100455.58
2023-05-14T04:47:35.999Z,100453.11
2023-05-14T04:48:35.949Z,100458.97
2023-05-14T04:49:36.000Z,100459.06
2023-05-14T04:50:36.019Z,100461.62
2023-05-14T04:51:36.011Z,100459.45
2023-05-14T04:52:36.014Z,100461.05
2023-05-14T04:53:36.026Z,100457.52
2023-05-14T04:54:36.138Z,100453.29
2023-05-14T04:55:36.174Z,100457.77
2023-05-14T04:56:36.084Z,100458
2023-05-14T04:57:36.101Z,100458.78
2023-05-14T04:58:36.141Z,100464.19
2023-05-14T04:59:36.143Z,100462.32
2023-05-14T05:00:36.412Z,100461.81
2023-05-14T05:01:37.546Z,100463.32
2023-05-14T05:02:36.210Z,100461.04
2023-05-14T05:03:36.237Z,100458.41
2023-05-14T05:04:36.460Z,100460.61
2023-05-14T05:05:36.245Z,100459.25
2023-05-14T05:06:36.272Z,100457.25
2023-05-14T05:07:36.285Z,100456.12
2023-05-14T05:08:36.401Z,100457.88
2023-05-14T05:09:36.336Z,100454.69
2023-05-14T05:10:36.359Z,100455.98
2023-05-14T05:11:36.398Z,100455.53
2023-05-14T05:12:36.361Z,100456.08
2023-05-14T05:13:36.402Z,100453.02
2023-05-14T05:14:36.413Z,100456.78
2023-05-14T05:15:36.468Z,100451.38
2023-05-14T05:16:36.575Z,100454.48
2023-05-14T05:17:36.498Z,100453.23
2023-05-14T05:18:36.485Z,100456.36
2023-05-14T05:19:43.710Z,100459.54
2023-05-14T05:20:40.617Z,100456.94
2023-05-14T05:21:40.684Z,100456.1
2023-05-14T05:22:40.654Z,100457.28
2023-05-14T05:23:40.636Z,100454.38
2023-05-14T05:24:40.689Z,100453.73
2023-05-14T05:25:40.941Z,100451.42
2023-05-14T05:26:40.722Z,100447.8
2023-05-14T05:27:40.698Z,100450.17
2023-05-14T05:28:40.747Z,100450.66
2023-05-14T05:29:40.749Z,100448.91
2023-05-14T05:30:40.813Z,100450.17
2023-05-14T05:31:41.292Z,100453.75
2023-05-14T05:32:41.031Z,100451.27
2023-05-14T05:33:40.841Z,100454.7
2023-05-14T05:34:41.071Z,100450.31
2023-05-14T05:35:40.865Z,100454.16
2023-05-14T05:36:40.902Z,100455
2023-05-14T05:37:41.213Z,100451.31
2023-05-14T05:38:40.947Z,100449.53
2023-05-14T05:39:40.908Z,100449.05
2023-05-14T05:40:41.139Z,100457.2
2023-05-14T05:41:40.967Z,100451.34
2023-05-14T05:42:41.425Z,100453.59
2023-05-14T05:43:41.326Z,100454.52
2023-05-14T05:44:40.995Z,100454.16
2023-05-14T05:45:40.990Z,100452.59
2023-05-14T05:46:41.159Z,100451.75
2023-05-14T05:47:41.112Z,100450.47
2023-05-14T05:48:41.067Z,100451.7
2023-05-14T05:49:41.073Z,100445.59
2023-05-14T05:50:41.068Z,100449.27
2023-05-14T05:51:41.101Z,100444.8
2023-05-14T05:52:41.402Z,100444.72
2023-05-14T05:53:41.136Z,100448.98
2023-05-14T05:54:41.138Z,100445.44
2023-05-14T05:55:41.147Z,100444.8
2023-05-14T05:56:41.429Z,100444.75
2023-05-14T05:57:41.204Z,100444.81
2023-05-14T05:58:41.207Z,100447.78
2023-05-14T05:59:41.279Z,100448.23
2023-05-14T06:00:41.634Z,100442.55
2023-05-14T06:01:41.301Z,100442.14
2023-05-14T06:02:41.598Z,100443.42
2023-05-14T06:03:41.285Z,100440.59
2023-05-14T06:04:41.309Z,100441.55
2023-05-14T06:05:41.407Z,100440.73
2023-05-14T06:06:41.388Z,100437.98
2023-05-14T06:07:41.393Z,100442.36
2023-05-14T06:08:41.389Z,100437.99
2023-05-14T06:09:41.391Z,100438.53
2023-05-14T06:10:41.399Z,100438.53
2023-05-14T06:11:41.474Z,100435.73
2023-05-14T06:12:41.480Z,100438.3
2023-05-14T06:13:41.428Z,100438.97
2023-05-14T06:14:41.487Z,100431.6
2023-05-14T06:15:41.503Z,100431.7
2023-05-14T06:16:41.615Z,100433.5
2023-05-14T06:17:41.605Z,100433.6
2023-05-14T06:18:41.585Z,100434.44
2023-05-14T06:19:41.533Z,100431.09
2023-05-14T06:20:41.564Z,100433.61
2023-05-14T06:21:41.898Z,100433.55
2023-05-14T06:22:41.632Z,100433.34
2023-05-14T06:23:41.610Z,100436.44
2023-05-14T06:24:41.631Z,100433.55
2023-05-14T06:25:41.659Z,100432.97
2023-05-14T06:26:41.686Z,100431.39
2023-05-14T06:27:42.279Z,100429.55
2023-05-14T06:28:41.692Z,100427.92
2023-05-14T06:29:41.710Z,100427.59
2023-05-14T06:30:41.727Z,100429.75
2023-05-14T06:31:41.781Z,100428
2023-05-14T06:32:41.831Z,100430.05
2023-05-14T06:33:41.803Z,100430.3
2023-05-14T06:34:41.982Z,100427.75
2023-05-14T06:35:41.843Z,100434.92
2023-05-14T06:36:41.813Z,100431.52
2023-05-14T06:37:41.847Z,100430.81
2023-05-14T06:38:42.057Z,100429.64
2023-05-14T06:39:41.880Z,100426.83
2023-05-14T06:40:41.900Z,100432.78
2023-05-14T06:41:41.962Z,100433.34
2023-05-14T06:42:42.136Z,100428.38
2023-05-14T06:43:41.955Z,100429.51
2023-05-14T06:44:42.070Z,100433.81
2023-05-14T06:45:42.003Z,100431.58
2023-05-14T06:46:42.014Z,100434.27
2023-05-14T06:47:42.038Z,100434.05
2023-05-14T06:48:42.079Z,100433.54
2023-05-14T06:49:42.007Z,100431.56
2023-05-14T06:50:42.031Z,100431.53
2023-05-14T06:51:42.094Z,100435.93
2023-05-14T06:52:42.104Z,100436.66
2023-05-14T06:53:42.102Z,100435.88
2023-05-14T06:54:42.106Z,100432.05
2023-05-14T06:55:43.151Z,100430.6
2023-05-14T06:56:42.980Z,100429.78
2023-05-14T06:57:42.975Z,100427.87
2023-05-14T06:58:43.061Z,100431.42
2023-05-14T06:59:43.020Z,100426.86
2023-05-14T07:00:43.323Z,100430.09
2023-05-14T07:01:43.293Z,100432.05
2023-05-14T07:02:43.082Z,100428.09
2023-05-14T07:03:43.135Z,100431.22
2023-05-14T07:04:43.114Z,100428.34
2023-05-14T07:05:43.137Z,100432.62
2023-05-14T07:06:43.143Z,100431.61
2023-05-14T07:07:43.155Z,100433
2023-05-14T07:08:43.581Z,100428.33
2023-05-14T07:09:43.174Z,100428.84
2023-05-14T07:10:43.183Z,100427.09
2023-05-14T07:11:43.223Z,100426.1
2023-05-14T07:12:43.376Z,100431.5
2023-05-14T07:13:43.246Z,100426.06
2023-05-14T07:14:43.283Z,100422.53
2023-05-14T07:15:43.249Z,100422.97
2023-05-14T07:16:43.344Z,100426.82
2023-05-14T07:17:43.333Z,100426.73
2023-05-14T07:18:44.209Z,100423.84
2023-05-14T07:19:43.355Z,100422.03
2023-05-14T07:20:43.391Z,100419.58
2023-05-14T07:21:43.382Z,100420.51
2023-05-14T07:22:43.388Z,100419.84
2023-05-14T07:23:43.456Z,100417.52
2023-05-14T07:24:43.469Z,100419.12
2023-05-14T07:25:43.478Z,100419.34
2023-05-14T07:26:43.673Z,100418.13
2023-05-14T07:27:43.478Z,100422.66
2023-05-14T07:28:43.493Z,100420.04
2023-05-14T07:29:43.707Z,100420.22
2023-05-14T07:30:43.529Z,100420.42
2023-05-14T07:31:43.764Z,100418.05
2023-05-14T07:32:43.639Z,100411.48
2023-05-14T07:33:43.575Z,100413.59
2023-05-14T07:34:43.596Z,100414.19
2023-05-14T07:35:43.605Z,100408.94
2023-05-14T07:36:43.654Z,100415.08
2023-05-14T07:37:43.866Z,100413.69
2023-05-14T07:38:43.877Z,100407.11
2023-05-14T07:39:43.812Z,100412.05
2023-05-14T07:40:43.709Z,100412.69
2023-05-14T07:41:43.887Z,100413.09
2023-05-14T07:42:43.707Z,100414.05
2023-05-14T07:43:43.900Z,100406.27
2023-05-14T07:44:43.772Z,100411.02
2023-05-14T07:45:43.771Z,100412.73
2023-05-14T07:46:43.785Z,100412.61
2023-05-14T07:47:43.848Z,100411.45
2023-05-14T07:48:43.849Z,100403.44
2023-05-14T07:49:43.842Z,100404.98
2023-05-14T07:50:43.845Z,100405.64
2023-05-14T07:51:43.887Z,100402.67
2023-05-14T07:52:44.306Z,100407.22
2023-05-14T07:53:43.915Z,100410.67
2023-05-14T07:54:43.956Z,100400.92
2023-05-14T07:55:44.714Z,100402.81
2023-05-14T07:56:43.945Z,100399.12
2023-05-14T07:57:44.000Z,100398.91
2023-05-14T07:58:43.963Z,100396.41
2023-05-14T07:59:44.006Z,100395.38
2023-05-14T08:00:44.359Z,100392.27
2023-05-14T08:01:44.067Z,100390.95
2023-05-14T08:02:44.416Z,100392.73
2023-05-14T08:03:44.214Z,100388.86
2023-05-14T08:04:44.451Z,100386.03
2023-05-14T08:05:44.105Z,100390.67
2023-05-14T08:06:44.135Z,100386.59
2023-05-14T08:07:44.782Z,100383.83
2023-05-14T08:08:44.148Z,100381.98
2023-05-14T08:09:44.184Z,100381.61
2023-05-14T08:10:44.527Z,100377.88
2023-05-14T08:11:44.181Z,100379.12
2023-05-14T08:12:44.219Z,100382.55
2023-05-14T08:13:44.252Z,100380.62
2023-05-14T08:14:44.238Z,100375.02
2023-05-14T08:15:44.295Z,100374.92
2023-05-14T08:16:44.320Z,100377.2
2023-05-14T08:17:44.351Z,100377.95
2023-05-14T08:18:44.368Z,100373.8
2023-05-14T08:19:44.346Z,100374.48
2023-05-14T08:20:44.342Z,100374.15
2023-05-14T08:21:44.337Z,100379.41
2023-05-14T08:22:44.417Z,100376.12
2023-05-14T08:23:44.402Z,100376.44
2023-05-14T08:24:44.407Z,100379.08
2023-05-14T08:25:44.461Z,100375.21
2023-05-14T08:26:44.701Z,100374.12
2023-05-14T08:27:44.451Z,100376.59
2023-05-14T08:28:44.454Z,100371.56
2023-05-14T08:29:44.496Z,100370.31
2023-05-14T08:30:44.554Z,100377.52
2023-05-14T08:31:44.509Z,100368.52
2023-05-14T08:32:44.562Z,100368.96
2023-05-14T08:33:44.554Z,100371.82
2023-05-14T08:34:44.560Z,100372.34
2023-05-14T08:35:44.585Z,100370.38
2023-05-14T08:36:44.662Z,100370.36
2023-05-14T08:37:44.978Z,100369.62
2023-05-14T08:38:44.649Z,100367.83
2023-05-14T08:39:44.655Z,100374.23
2023-05-14T08:41:46.907Z,100367.63
2023-05-14T08:42:47.165Z,100367.16
2023-05-14T08:44:52.971Z,100366.08
2023-05-14T08:45:51.993Z,100366.84
2023-05-14T08:46:50.092Z,100363.62
2023-05-14T08:47:50.361Z,100367.37
2023-05-14T08:49:54.779Z,100359.99
2023-05-14T08:50:52.632Z,100360.02
2023-05-14T08:51:52.684Z,100360.83
2023-05-14T08:52:52.914Z,100364.62
2023-05-14T08:53:52.524Z,100359.61
2023-05-14T08:54:52.928Z,100361.79
2023-05-14T08:55:53.519Z,100361.62
2023-05-14T08:56:53.104Z,100364.12
2023-05-14T08:57:53.461Z,100360.7
2023-05-14T08:58:53.089Z,100360.95
2023-05-14T08:59:53.534Z,100359.34
2023-05-14T09:00:53.639Z,100357.45
2023-05-14T09:01:54.482Z,100358.66
2023-05-14T09:02:53.265Z,100355.68
2023-05-14T09:03:53.897Z,100351.85
2023-05-14T09:04:57.233Z,100350.84
2023-05-14T09:05:53.770Z,100355.92
2023-05-14T09:06:54.258Z,100350.41
2023-05-14T09:07:53.532Z,100349.9
2023-05-14T09:08:54.024Z,100350.73
2023-05-14T09:09:54.068Z,100348.92
2023-05-14T09:10:53.549Z,100347.5
2023-05-14T09:11:54.031Z,100348.32
2023-05-14T09:12:53.588Z,100347.28
2023-05-14T09:13:53.577Z,100346.52
2023-05-14T09:14:53.809Z,100344.3
2023-05-14T09:15:54.496Z,100342.55
2023-05-14T09:16:54.074Z,100348.7
2023-05-14T09:17:53.754Z,100347.4
2023-05-14T09:18:54.691Z,100343.03
2023-05-14T09:19:54.178Z,100342.7
2023-05-14T09:20:53.718Z,100343.55
2023-05-14T09:21:56.636Z,100343.59
2023-05-14T09:22:54.011Z,100341.45
2023-05-14T09:23:54.094Z,100340.33
2023-05-14T09:25:55.100Z,100339.16
2023-05-14T09:26:58.741Z,100338.39
2023-05-14T09:27:58.554Z,100336.66
2023-05-14T09:28:55.589Z,100338.21
2023-05-14T09:29:55.210Z,100336.98
2023-05-14T09:30:55.178Z,100336.91
2023-05-14T09:31:56.128Z,100340.7
2023-05-14T09:32:55.253Z,100344.84
2023-05-14T09:33:55.258Z,100340.59
2023-05-14T09:34:56.281Z,100342
2023-05-14T09:35:58.800Z,100339.86
2023-05-14T09:36:59.535Z,100338.3
2023-05-14T09:37:55.934Z,100339.02
2023-05-14T09:38:58.825Z,100333.27
2023-05-14T09:39:55.773Z,100329.77
2023-05-14T09:40:55.921Z,100327.3
2023-05-14T09:41:56.311Z,100329.75
2023-05-14T09:42:55.806Z,100328.89
2023-05-14T09:43:55.846Z,100321.73
2023-05-14T09:44:56.042Z,100315.89
2023-05-14T09:45:55.854Z,100314.95
2023-05-14T09:46:55.968Z,100317.59
2023-05-14T09:47:56.163Z,100314.59
2023-05-14T09:48:55.921Z,100314.05
2023-05-14T09:49:55.915Z,100312.47
2023-05-14T09:50:55.954Z,100312.38
2023-05-14T09:51:55.902Z,100308.29
2023-05-14T09:52:56.014Z,100306.97
2023-05-14T09:53:56.007Z,100309.74
2023-05-14T09:54:56.184Z,100310.38
2023-05-14T09:55:56.038Z,100307.2
2023-05-14T09:56:56.052Z,100309.15
2023-05-14T09:57:56.017Z,100309.36
2023-05-14T09:58:56.490Z,100304.16
2023-05-14T09:59:56.067Z,100304.11
2023-05-14T10:00:57.362Z,100304.68
2023-05-14T10:01:57.149Z,100302.7
2023-05-14T10:02:57.711Z,100297.97
2023-05-14T10:03:56.569Z,100301.69
2023-05-14T10:04:57.597Z,100304.34
2023-05-14T10:05:58.398Z,100301
2023-05-14T10:06:56.527Z,100302.59
2023-05-14T10:07:57.176Z,100300.03
2023-05-14T10:08:58.300Z,100297.4
2023-05-14T10:10:01.381Z,100298.77
2023-05-14T10:10:58.818Z,100297.45
2023-05-14T10:11:59.278Z,100300.37
2023-05-14T10:12:59.621Z,100296.73
2023-05-14T10:15:01.089Z,100294.81
2023-05-14T10:16:08.084Z,100292.75
2023-05-14T10:17:00.534Z,100292.47
2023-05-14T10:18:03.385Z,100291.95
2023-05-14T10:20:00.532Z,100294.5
2023-05-14T10:21:04.222Z,100292.59
2023-05-14T10:23:04.099Z,100287.59
2023-05-14T10:24:05.164Z,100288.27
2023-05-14T10:25:04.877Z,100279.81
2023-05-14T10:26:04.335Z,100284.7
2023-05-14T10:27:04.421Z,100282.45
2023-05-14T10:28:05.311Z,100283.09
2023-05-14T10:29:03.976Z,100283.03
2023-05-14T10:30:05.741Z,100278.09
2023-05-14T10:31:04.073Z,100280.77
2023-05-14T10:32:05.105Z,100280.52
2023-05-14T10:36:10.778Z,100272.09
2023-05-14T10:37:17.424Z,100279.62
2023-05-14T10:38:14.724Z,100278.56
2023-05-14T10:39:13.655Z,100273.92
2023-05-14T10:40:13.881Z,100273.64
2023-05-14T10:41:14.660Z,100274.18
2023-05-14T10:42:21.453Z,100267.27
2023-05-14T10:43:17.922Z,100273.12
2023-05-14T10:44:17.959Z,100270.34
2023-05-14T10:45:17.727Z,100272.17
2023-05-14T10:46:18.075Z,100272.3
2023-05-14T10:47:18.222Z,100272.19
2023-05-14T10:48:18.493Z,100270.38
2023-05-14T10:49:23.271Z,100270.22
2023-05-14T10:50:19.507Z,100263.69
2023-05-14T10:51:19.723Z,100261.48
2023-05-14T10:52:19.412Z,100262.8
2023-05-14T10:53:19.296Z,100260.25
2023-05-14T10:54:19.232Z,100261.84
2023-05-14T10:55:19.293Z,100261.62
2023-05-14T10:56:19.315Z,100264.06
2023-05-14T10:57:20.042Z,100260.98
2023-05-14T10:58:19.364Z,100260.62
2023-05-14T10:59:19.289Z,100256.58
2023-05-14T11:00:19.473Z,100260.65
2023-05-14T11:01:23.731Z,100257.56
2023-05-14T11:03:21.642Z,100258.19
2023-05-14T11:04:24.399Z,100252.8
2023-05-14T11:05:21.626Z,100256.73
2023-05-14T11:06:22.000Z,100250.41
2023-05-14T11:08:27.462Z,100255.53
2023-05-14T11:09:25.633Z,100250.25
2023-05-14T11:10:25.301Z,100254.88
2023-05-14T11:11:25.530Z,100254.27
2023-05-14T11:12:26.248Z,100254.09
2023-05-14T11:13:26.348Z,100254.52
2023-05-14T11:14:25.101Z,100257
2023-05-14T11:15:27.412Z,100256.97
2023-05-14T11:16:27.728Z,100254.44
2023-05-14T11:17:25.890Z,100253.19
2023-05-14T11:19:26.195Z,100251.53
2023-05-14T11:20:26.401Z,100251.95
2023-05-14T11:21:26.502Z,100254.64
2023-05-14T11:22:26.231Z,100253.5
2023-05-14T11:23:26.678Z,100252.88
2023-05-14T11:24:26.276Z,100254.55
2023-05-14T11:25:26.318Z,100251.53
2023-05-14T11:26:26.326Z,100252.23
2023-05-14T11:27:26.572Z,100246.77
2023-05-14T11:28:26.570Z,100248.72
2023-05-14T11:29:26.618Z,100243.75
2023-05-14T11:30:26.715Z,100242.11
2023-05-14T11:31:26.408Z,100241.89
2023-05-14T11:32:26.813Z,100240.29
2023-05-14T11:33:27.465Z,100241.79
2023-05-14T11:34:26.377Z,100235.22
2023-05-14T11:35:26.968Z,100236.3
2023-05-14T11:36:26.428Z,100239.66
2023-05-14T11:37:26.404Z,100235.09
2023-05-14T11:38:26.444Z,100239.14
2023-05-14T11:39:26.498Z,100237.1
2023-05-14T11:40:26.762Z,100235.89
2023-05-14T11:41:26.520Z,100241.78
2023-05-14T11:42:26.672Z,100237.73
2023-05-14T11:43:26.502Z,100234.31
2023-05-14T11:44:26.557Z,100234.7
2023-05-14T11:45:27.664Z,100233.36
2023-05-14T11:46:26.612Z,100233.08
2023-05-14T11:47:26.626Z,100228.83
2023-05-14T11:48:26.606Z,100229.38
2023-05-14T11:49:27.254Z,100234.16
2023-05-14T11:50:26.844Z,100232.59
2023-05-14T11:51:26.935Z,100229.22
2023-05-14T11:52:26.695Z,100225.33